createdAt,value
2023-01-28T00:00:02.331Z,50.877235
2023-01-28T00:01:02.326Z,50.877243
2023-01-28T00:02:02.376Z,50.877243
2023-01-28T00:03:02.323Z,50.877258
2023-01-28T00:04:02.370Z,50.877174
2023-01-28T00:05:02.289Z,50.877228
2023-01-28T00:06:02.274Z,50.877266
2023-01-28T00:07:02.280Z,50.877274
2023-01-28T00:08:02.287Z,50.877300
2023-01-28T00:09:02.253Z,50.877274
2023-01-28T00:10:02.256Z,50.877247
2023-01-28T00:11:02.253Z,50.877235
2023-01-28T00:12:02.224Z,50.877243
2023-01-28T00:13:02.212Z,50.877224
2023-01-28T00:14:02.230Z,50.877216
2023-01-28T00:15:02.212Z,50.877216
2023-01-28T00:16:02.225Z,50.877220
2023-01-28T00:17:02.201Z,50.877224
2023-01-28T00:18:02.168Z,50.877190
2023-01-28T00:19:02.150Z,50.877178
2023-01-28T00:20:02.157Z,50.877220
2023-01-28T00:21:02.128Z,50.877201
2023-01-28T00:22:02.135Z,50.877216
2023-01-28T00:23:02.109Z,50.877243
2023-01-28T00:24:03.129Z,50.877254
2023-01-28T00:25:02.106Z,50.877243
2023-01-28T00:26:02.091Z,50.877232
2023-01-28T00:27:02.099Z,50.877209
2023-01-28T00:28:02.067Z,50.877220
2023-01-28T00:29:02.059Z,50.877182
2023-01-28T00:30:02.055Z,50.877216
2023-01-28T00:31:02.056Z,50.877235
2023-01-28T00:32:02.092Z,50.877266
2023-01-28T00:33:02.008Z,50.877239
2023-01-28T00:34:01.997Z,50.877193
2023-01-28T00:35:01.989Z,50.877220
2023-01-28T00:36:02.006Z,50.877209
2023-01-28T00:37:01.984Z,50.877243
2023-01-28T00:38:01.982Z,50.877213
2023-01-28T00:39:01.994Z,50.877224
2023-01-28T00:40:01.947Z,50.877232
2023-01-28T00:41:01.940Z,50.877254
2023-01-28T00:42:01.949Z,50.877228
2023-01-28T00:43:01.907Z,50.877224
2023-01-28T00:44:01.913Z,50.877224
2023-01-28T00:45:01.929Z,50.877232
2023-01-28T00:46:01.913Z,50.877224
2023-01-28T00:47:01.888Z,50.877213
2023-01-28T00:48:01.874Z,50.877243
2023-01-28T00:49:01.887Z,50.877216
2023-01-28T00:50:01.873Z,50.877213
2023-01-28T00:51:01.851Z,50.877235
2023-01-28T00:52:01.831Z,50.877239
2023-01-28T00:53:02.845Z,50.877216
2023-01-28T00:54:01.854Z,50.877254
2023-01-28T00:55:01.807Z,50.877197
2023-01-28T00:56:01.788Z,50.877190
2023-01-28T00:57:01.801Z,50.877117
2023-01-28T00:58:01.783Z,50.877125
2023-01-28T00:59:01.810Z,50.877110
2023-01-28T01:00:01.764Z,50.877037
2023-01-28T01:01:01.752Z,50.877064
2023-01-28T01:02:01.751Z,50.877014
2023-01-28T01:03:08.393Z,50.876915
2023-01-28T01:04:01.734Z,50.876991
2023-01-28T01:05:01.765Z,50.876991
2023-01-28T01:06:01.723Z,50.876991
2023-01-28T01:07:01.689Z,50.876991
2023-01-28T01:08:01.677Z,50.876991
2023-01-28T01:09:01.697Z,50.876991
2023-01-28T01:10:01.683Z,50.876991
2023-01-28T01:11:01.674Z,50.876991
2023-01-28T01:12:01.690Z,50.876991
2023-01-28T01:13:01.645Z,50.876984
2023-01-28T01:14:01.661Z,50.877125
2023-01-28T01:15:01.628Z,50.877182
2023-01-28T01:16:01.663Z,50.877331
2023-01-28T01:17:01.597Z,50.877209
2023-01-28T01:18:01.599Z,50.877129
2023-01-28T01:19:01.629Z,50.877174
2023-01-28T01:20:01.585Z,50.877151
2023-01-28T01:21:01.580Z,50.877174
2023-01-28T01:22:01.608Z,50.877193
2023-01-28T01:23:01.565Z,50.877220
2023-01-28T01:24:01.591Z,50.877178
2023-01-28T01:25:01.553Z,50.877186
2023-01-28T01:26:01.514Z,50.877140
2023-01-28T01:27:01.568Z,50.877155
2023-01-28T01:28:01.494Z,50.877178
2023-01-28T01:29:01.486Z,50.877270
2023-01-28T01:30:01.506Z,50.877224
2023-01-28T01:31:01.494Z,50.877190
2023-01-28T01:32:02.540Z,50.877228
2023-01-28T01:33:01.450Z,50.877274
2023-01-28T01:34:01.425Z,50.877243
2023-01-28T01:35:01.425Z,50.877258
2023-01-28T01:36:01.439Z,50.877068
2023-01-28T01:37:01.484Z,50.877090
2023-01-28T01:38:01.394Z,50.877144
2023-01-28T01:39:01.382Z,50.877209
2023-01-28T01:40:01.387Z,50.877213
2023-01-28T01:41:01.358Z,50.877213
2023-01-28T01:42:01.365Z,50.877140
2023-01-28T01:43:01.340Z,50.877151
2023-01-28T01:44:01.344Z,50.877159
2023-01-28T01:45:01.322Z,50.877186
2023-01-28T01:46:01.446Z,50.877201
2023-01-28T01:47:01.302Z,50.877129
2023-01-28T01:48:01.296Z,50.877232
2023-01-28T01:49:01.279Z,50.877136
2023-01-28T01:50:01.276Z,50.877129
2023-01-28T01:51:01.271Z,50.877144
2023-01-28T01:52:01.240Z,50.877258
2023-01-28T01:53:01.249Z,50.877262
2023-01-28T01:54:01.243Z,50.877144
2023-01-28T01:55:01.213Z,50.877144
2023-01-28T01:56:02.244Z,50.877186
2023-01-28T01:57:01.242Z,50.877182
2023-01-28T01:58:01.196Z,50.877186
2023-01-28T01:59:01.206Z,50.877155
2023-01-28T02:00:01.191Z,50.877136
2023-01-28T02:01:01.166Z,50.877178
2023-01-28T02:02:01.292Z,50.877178
2023-01-28T02:03:01.157Z,50.877159
2023-01-28T02:04:01.166Z,50.877136
2023-01-28T02:05:01.134Z,50.877140
2023-01-28T02:06:01.143Z,50.877151
2023-01-28T02:07:01.156Z,50.877186
2023-01-28T02:08:01.144Z,50.877110
2023-01-28T02:09:01.128Z,50.877136
2023-01-28T02:10:01.100Z,50.877201
2023-01-28T02:11:01.091Z,50.877193
2023-01-28T02:12:01.141Z,50.877144
2023-01-28T02:13:01.120Z,50.877129
2023-01-28T02:14:01.042Z,50.877167
2023-01-28T02:15:01.038Z,50.877129
2023-01-28T02:16:01.038Z,50.877174
2023-01-28T02:17:01.018Z,50.877205
2023-01-28T02:18:01.041Z,50.877232
2023-01-28T02:19:01.019Z,50.877178
2023-01-28T02:20:00.995Z,50.877190
2023-01-28T02:21:00.983Z,50.877201
2023-01-28T02:22:01.975Z,50.877197
2023-01-28T02:23:00.992Z,50.877167
2023-01-28T02:24:00.981Z,50.877087
2023-01-28T02:25:00.943Z,50.877155
2023-01-28T02:26:00.962Z,50.877171
2023-01-28T02:27:00.928Z,50.877190
2023-01-28T02:28:00.922Z,50.877213
2023-01-28T02:29:00.906Z,50.877186
2023-01-28T02:30:00.915Z,50.877171
2023-01-28T02:31:00.928Z,50.877228
2023-01-28T02:32:00.890Z,50.877247
2023-01-28T02:33:00.905Z,50.877182
2023-01-28T02:34:00.876Z,50.877159
2023-01-28T02:35:00.858Z,50.877159
2023-01-28T02:36:00.855Z,50.877163
2023-01-28T02:37:00.834Z,50.877125
2023-01-28T02:38:00.850Z,50.877144
2023-01-28T02:39:00.817Z,50.877159
2023-01-28T02:40:00.889Z,50.877121
2023-01-28T02:41:00.795Z,50.877094
2023-01-28T02:42:00.783Z,50.877083
2023-01-28T02:43:00.821Z,50.877106
2023-01-28T02:44:00.763Z,50.877102
2023-01-28T02:45:00.754Z,50.877098
2023-01-28T02:46:00.787Z,50.877094
2023-01-28T02:47:00.739Z,50.877098
2023-01-28T02:48:00.733Z,50.877041
2023-01-28T02:49:00.726Z,50.877071
2023-01-28T02:50:00.719Z,50.877052
2023-01-28T02:51:00.746Z,50.877075
2023-01-28T02:52:00.695Z,50.877190
2023-01-28T02:53:00.690Z,50.877186
2023-01-28T02:54:00.672Z,50.877182
2023-01-28T02:55:00.672Z,50.877205
2023-01-28T02:56:00.673Z,50.877163
2023-01-28T02:57:00.673Z,50.877155
2023-01-28T02:58:00.642Z,50.877186
2023-01-28T02:59:00.635Z,50.877254
2023-01-28T03:00:00.629Z,50.877190
2023-01-28T03:01:00.637Z,50.877182
2023-01-28T03:02:00.597Z,50.877186
2023-01-28T03:03:00.666Z,50.877178
2023-01-28T03:04:00.592Z,50.877209
2023-01-28T03:05:00.578Z,50.877193
2023-01-28T03:06:00.592Z,50.877216
2023-01-28T03:07:00.585Z,50.877171
2023-01-28T03:08:00.554Z,50.877216
2023-01-28T03:09:00.542Z,50.877216
2023-01-28T03:10:00.545Z,50.877239
2023-01-28T03:11:00.528Z,50.877235
2023-01-28T03:12:00.542Z,50.877228
2023-01-28T03:13:00.488Z,50.877190
2023-01-28T03:14:00.489Z,50.877193
2023-01-28T03:15:00.499Z,50.877224
2023-01-28T03:16:00.545Z,50.877201
2023-01-28T03:17:00.470Z,50.877220
2023-01-28T03:18:00.488Z,50.877213
2023-01-28T03:19:00.465Z,50.877186
2023-01-28T03:20:00.447Z,50.877151
2023-01-28T03:21:00.431Z,50.877060
2023-01-28T03:22:00.428Z,50.877197
2023-01-28T03:23:00.424Z,50.877193
2023-01-28T03:24:00.441Z,50.877197
2023-01-28T03:25:00.393Z,50.877193
2023-01-28T03:26:00.400Z,50.877216
2023-01-28T03:27:00.378Z,50.877220
2023-01-28T03:28:00.371Z,50.877205
2023-01-28T03:29:00.359Z,50.877213
2023-01-28T03:30:00.358Z,50.877213
2023-01-28T03:31:01.389Z,50.877201
2023-01-28T03:32:00.336Z,50.877201
2023-01-28T03:33:00.316Z,50.877193
2023-01-28T03:34:00.319Z,50.877209
2023-01-28T03:35:00.374Z,50.877205
2023-01-28T03:36:00.291Z,50.877224
2023-01-28T03:37:00.281Z,50.877213
2023-01-28T03:38:00.275Z,50.877213
2023-01-28T03:39:00.261Z,50.877209
2023-01-28T03:40:00.278Z,50.877205
2023-01-28T03:41:00.250Z,50.877205
2023-01-28T03:42:00.254Z,50.877201
2023-01-28T03:43:00.216Z,50.877201
2023-01-28T03:44:00.203Z,50.877197
2023-01-28T03:45:00.199Z,50.877205
2023-01-28T03:46:00.209Z,50.877197
2023-01-28T03:47:00.196Z,50.877216
2023-01-28T03:48:00.181Z,50.877209
2023-01-28T03:49:00.170Z,50.877224
2023-01-28T03:50:00.169Z,50.877213
2023-01-28T03:51:00.139Z,50.877213
2023-01-28T03:52:00.153Z,50.877209
2023-01-28T03:53:00.133Z,50.877213
2023-01-28T03:54:00.127Z,50.877205
2023-01-28T03:55:00.099Z,50.877205
2023-01-28T03:56:00.100Z,50.877220
2023-01-28T03:57:00.115Z,50.877224
2023-01-28T03:58:00.098Z,50.877224
2023-01-28T03:59:00.097Z,50.877216
2023-01-28T04:00:00.051Z,50.877228
2023-01-28T04:01:01.041Z,50.877235
2023-01-28T04:02:00.104Z,50.877224
2023-01-28T04:03:00.183Z,50.877224
2023-01-28T04:04:00.023Z,50.877213
2023-01-28T04:05:00.026Z,50.877216
2023-01-28T04:05:59.998Z,50.877190
2023-01-28T04:06:59.995Z,50.877190
2023-01-28T04:07:59.983Z,50.877205
2023-01-28T04:08:59.976Z,50.877201
2023-01-28T04:09:59.984Z,50.877216
2023-01-28T04:11:00.005Z,50.877239
2023-01-28T04:11:59.952Z,50.877220
2023-01-28T04:12:59.943Z,50.877209
2023-01-28T04:13:59.928Z,50.877209
2023-01-28T04:14:59.919Z,50.877209
2023-01-28T04:15:59.968Z,50.877220
2023-01-28T04:16:59.908Z,50.877209
2023-01-28T04:17:59.891Z,50.877197
2023-01-28T04:18:59.887Z,50.877193
2023-01-28T04:19:59.870Z,50.877213
2023-01-28T04:20:59.861Z,50.877209
2023-01-28T04:21:59.862Z,50.877213
2023-01-28T04:22:59.851Z,50.877224
2023-01-28T04:23:59.911Z,50.877209
2023-01-28T04:24:59.825Z,50.877205
2023-01-28T04:25:59.816Z,50.877209
2023-01-28T04:26:59.813Z,50.877209
2023-01-28T04:27:59.804Z,50.877193
2023-01-28T04:28:59.789Z,50.877197
2023-01-28T04:29:59.782Z,50.877190
2023-01-28T04:31:00.921Z,50.877178
2023-01-28T04:31:59.752Z,50.877201
2023-01-28T04:32:59.768Z,50.877213
2023-01-28T04:33:59.759Z,50.877232
2023-01-28T04:34:59.726Z,50.877224
2023-01-28T04:35:59.736Z,50.877251
2023-01-28T04:36:59.703Z,50.877201
2023-01-28T04:37:59.693Z,50.877163
2023-01-28T04:38:59.699Z,50.877228
2023-01-28T04:39:59.695Z,50.877232
2023-01-28T04:40:59.738Z,50.877247
2023-01-28T04:42:00.656Z,50.877224
2023-01-28T04:42:59.657Z,50.877216
2023-01-28T04:43:59.636Z,50.877220
2023-01-28T04:44:59.620Z,50.877232
2023-01-28T04:45:59.635Z,50.877254
2023-01-28T04:46:59.609Z,50.877216
2023-01-28T04:47:59.634Z,50.877213
2023-01-28T04:48:59.589Z,50.877224
2023-01-28T04:49:59.580Z,50.877193
2023-01-28T04:50:59.599Z,50.877205
2023-01-28T04:51:59.572Z,50.877216
2023-01-28T04:52:59.547Z,50.877232
2023-01-28T04:53:59.560Z,50.877277
2023-01-28T04:54:59.528Z,50.877262
2023-01-28T04:55:59.540Z,50.877201
2023-01-28T04:56:59.513Z,50.877266
2023-01-28T04:57:59.508Z,50.877220
2023-01-28T04:58:59.495Z,50.877205
2023-01-28T04:59:59.475Z,50.877274
2023-01-28T05:00:59.559Z,50.877262
2023-01-28T05:01:59.560Z,50.877235
2023-01-28T05:02:59.469Z,50.877251
2023-01-28T05:03:59.461Z,50.877254
2023-01-28T05:04:59.445Z,50.877296
2023-01-28T05:05:59.423Z,50.877281
2023-01-28T05:06:59.429Z,50.877346
2023-01-28T05:07:59.428Z,50.877415
2023-01-28T05:08:59.400Z,50.877533
2023-01-28T05:09:59.403Z,50.877632
2023-01-28T05:10:59.378Z,50.877651
2023-01-28T05:11:59.390Z,50.877258
2023-01-28T05:12:59.357Z,50.877209
2023-01-28T05:13:59.371Z,50.877235
2023-01-28T05:14:59.339Z,50.877247
2023-01-28T05:15:59.338Z,50.877258
2023-01-28T05:16:59.417Z,50.877251
2023-01-28T05:17:59.326Z,50.877216
2023-01-28T05:18:59.316Z,50.877258
2023-01-28T05:19:59.301Z,50.877239
2023-01-28T05:20:59.281Z,50.877213
2023-01-28T05:21:59.305Z,50.877243
2023-01-28T05:22:59.295Z,50.877274
2023-01-28T05:23:59.274Z,50.877228
2023-01-28T05:24:59.251Z,50.877205
2023-01-28T05:25:59.240Z,50.877243
2023-01-28T05:26:59.241Z,50.877247
2023-01-28T05:27:59.249Z,50.877205
2023-01-28T05:28:59.216Z,50.877205
2023-01-28T05:29:59.197Z,50.877167
2023-01-28T05:30:59.244Z,50.877201
2023-01-28T05:31:59.181Z,50.877213
2023-01-28T05:32:59.197Z,50.877193
2023-01-28T05:33:59.182Z,50.877190
2023-01-28T05:34:59.161Z,50.877190
2023-01-28T05:35:59.145Z,50.877232
2023-01-28T05:36:59.135Z,50.877201
2023-01-28T05:37:59.143Z,50.877197
2023-01-28T05:38:59.112Z,50.877193
2023-01-28T05:39:59.116Z,50.877190
2023-01-28T05:40:59.098Z,50.877186
2023-01-28T05:41:59.118Z,50.877190
2023-01-28T05:42:59.134Z,50.877155
2023-01-28T05:43:59.086Z,50.877197
2023-01-28T05:44:59.078Z,50.877300
2023-01-28T05:45:59.144Z,50.877274
2023-01-28T05:46:59.045Z,50.877247
2023-01-28T05:47:59.049Z,50.877174
2023-01-28T05:48:59.015Z,50.877163
2023-01-28T05:49:59.085Z,50.877197
2023-01-28T05:50:59.027Z,50.877163
2023-01-28T05:51:58.983Z,50.877243
2023-01-28T05:52:58.993Z,50.877254
2023-01-28T05:53:58.964Z,50.877201
2023-01-28T05:54:58.978Z,50.877174
2023-01-28T05:55:58.998Z,50.877285
2023-01-28T05:56:58.974Z,50.877213
2023-01-28T05:57:58.942Z,50.877190
2023-01-28T05:58:58.915Z,50.877121
2023-01-28T05:59:58.949Z,50.877174
2023-01-28T06:00:58.906Z,50.877171
2023-01-28T06:01:58.896Z,50.877186
2023-01-28T06:02:58.912Z,50.877178
2023-01-28T06:03:58.881Z,50.877182
2023-01-28T06:04:58.895Z,50.877144
2023-01-28T06:05:58.878Z,50.877186
2023-01-28T06:06:58.858Z,50.877148
2023-01-28T06:07:58.835Z,50.877178
2023-01-28T06:08:58.831Z,50.877174
2023-01-28T06:09:58.813Z,50.877163
2023-01-28T06:10:58.838Z,50.877140
2023-01-28T06:11:58.845Z,50.877148
2023-01-28T06:12:58.789Z,50.877186
2023-01-28T06:13:58.797Z,50.877201
2023-01-28T06:14:58.779Z,50.877148
2023-01-28T06:15:58.896Z,50.877136
2023-01-28T06:16:58.775Z,50.877151
2023-01-28T06:17:58.747Z,50.877106
2023-01-28T06:18:58.751Z,50.877117
2023-01-28T06:19:58.824Z,50.877171
2023-01-28T06:20:58.735Z,50.877163
2023-01-28T06:21:58.704Z,50.877148
2023-01-28T06:22:58.706Z,50.877205
2023-01-28T06:23:58.736Z,50.877197
2023-01-28T06:24:58.688Z,50.877159
2023-01-28T06:25:58.697Z,50.877171
2023-01-28T06:26:58.661Z,50.877182
2023-01-28T06:27:58.652Z,50.877167
2023-01-28T06:28:58.656Z,50.877121
2023-01-28T06:29:59.671Z,50.877121
2023-01-28T06:30:58.705Z,50.877151
2023-01-28T06:31:58.640Z,50.877159
2023-01-28T06:32:58.623Z,50.877178
2023-01-28T06:33:58.614Z,50.877178
2023-01-28T06:34:58.620Z,50.877182
2023-01-28T06:35:58.592Z,50.877186
2023-01-28T06:36:58.587Z,50.877174
2023-01-28T06:37:58.560Z,50.877167
2023-01-28T06:38:58.548Z,50.877171
2023-01-28T06:39:58.561Z,50.877171
2023-01-28T06:40:58.543Z,50.877178
2023-01-28T06:41:58.554Z,50.877193
2023-01-28T06:42:58.512Z,50.877182
2023-01-28T06:43:58.517Z,50.877155
2023-01-28T06:44:58.505Z,50.877132
2023-01-28T06:45:58.527Z,50.877178
2023-01-28T06:46:58.491Z,50.877159
2023-01-28T06:47:58.482Z,50.877159
2023-01-28T06:48:58.467Z,50.877171
2023-01-28T06:49:58.461Z,50.877182
2023-01-28T06:50:58.460Z,50.877182
2023-01-28T06:51:58.445Z,50.877155
2023-01-28T06:52:58.436Z,50.877140
2023-01-28T06:53:58.412Z,50.877178
2023-01-28T06:54:58.408Z,50.877186
2023-01-28T06:55:58.412Z,50.877190
2023-01-28T06:56:58.406Z,50.877190
2023-01-28T06:57:58.390Z,50.877220
2023-01-28T06:58:58.391Z,50.877220
2023-01-28T06:59:59.358Z,50.877182
2023-01-28T07:00:58.359Z,50.877193
2023-01-28T07:01:58.376Z,50.877258
2023-01-28T07:02:58.380Z,50.877228
2023-01-28T07:04:30.249Z,50.877174
2023-01-28T07:04:58.313Z,50.877182
2023-01-28T07:05:58.332Z,50.877205
2023-01-28T07:06:58.300Z,50.877220
2023-01-28T07:07:58.317Z,50.877113
2023-01-28T07:08:58.275Z,50.877213
2023-01-28T07:09:58.267Z,50.877270
2023-01-28T07:10:58.264Z,50.877247
2023-01-28T07:11:58.246Z,50.877220
2023-01-28T07:12:58.256Z,50.877193
2023-01-28T07:13:58.219Z,50.877209
2023-01-28T07:14:59.226Z,50.877251
2023-01-28T07:15:58.212Z,50.877235
2023-01-28T07:16:58.224Z,50.877239
2023-01-28T07:17:59.583Z,50.877205
2023-01-28T07:18:58.216Z,50.877213
2023-01-28T07:19:58.159Z,50.877205
2023-01-28T07:20:58.163Z,50.877228
2023-01-28T07:21:58.179Z,50.877216
2023-01-28T07:22:58.156Z,50.877186
2023-01-28T07:23:58.234Z,50.877197
2023-01-28T07:24:58.126Z,50.877197
2023-01-28T07:25:58.112Z,50.877193
2023-01-28T07:26:58.105Z,50.877197
2023-01-28T07:27:58.120Z,50.877186
2023-01-28T07:28:58.103Z,50.877209
2023-01-28T07:29:58.074Z,50.877228
2023-01-28T07:30:58.133Z,50.877235
2023-01-28T07:31:58.107Z,50.877239
2023-01-28T07:32:58.053Z,50.877243
2023-01-28T07:33:58.051Z,50.877258
2023-01-28T07:34:58.033Z,50.877258
2023-01-28T07:35:58.067Z,50.877213
2023-01-28T07:36:58.012Z,50.877247
2023-01-28T07:37:58.011Z,50.877205
2023-01-28T07:38:57.986Z,50.877216
2023-01-28T07:39:57.992Z,50.877243
2023-01-28T07:40:57.998Z,50.877296
2023-01-28T07:41:57.997Z,50.877361
2023-01-28T07:42:57.952Z,50.877281
2023-01-28T07:43:57.947Z,50.877529
2023-01-28T07:44:57.938Z,50.877243
2023-01-28T07:45:57.936Z,50.877090
2023-01-28T07:46:57.963Z,50.877155
2023-01-28T07:47:57.911Z,50.877140
2023-01-28T07:48:57.894Z,50.877148
2023-01-28T07:49:57.906Z,50.877075
2023-01-28T07:50:57.882Z,50.877041
2023-01-28T07:51:57.866Z,50.877106
2023-01-28T07:52:57.883Z,50.877281
2023-01-28T07:53:57.857Z,50.877308
2023-01-28T07:54:57.851Z,50.877338
2023-01-28T07:55:57.825Z,50.877369
2023-01-28T07:56:57.823Z,50.877316
2023-01-28T07:57:57.837Z,50.877254
2023-01-28T07:58:57.807Z,50.877350
2023-01-28T07:59:57.788Z,50.877514
2023-01-28T08:00:57.781Z,50.877438
2023-01-28T08:01:57.769Z,50.877277
2023-01-28T08:02:57.775Z,50.877193
2023-01-28T08:03:57.785Z,50.877296
2023-01-28T08:04:57.841Z,50.877159
2023-01-28T08:05:57.749Z,50.877182
2023-01-28T08:06:57.724Z,50.877232
2023-01-28T08:07:57.728Z,50.877262
2023-01-28T08:08:57.725Z,50.877239
2023-01-28T08:09:57.695Z,50.877193
2023-01-28T08:10:57.700Z,50.877190
2023-01-28T08:11:57.680Z,50.877174
2023-01-28T08:12:57.673Z,50.877224
2023-01-28T08:13:57.694Z,50.877224
2023-01-28T08:14:57.679Z,50.877205
2023-01-28T08:15:57.717Z,50.877235
2023-01-28T08:16:57.662Z,50.877239
2023-01-28T08:17:57.631Z,50.877254
2023-01-28T08:18:57.643Z,50.877205
2023-01-28T08:19:57.609Z,50.877197
2023-01-28T08:20:57.597Z,50.877232
2023-01-28T08:21:57.596Z,50.877235
2023-01-28T08:22:57.580Z,50.877209
2023-01-28T08:23:57.587Z,50.877220
2023-01-28T08:24:57.552Z,50.877197
2023-01-28T08:25:57.549Z,50.877213
2023-01-28T08:26:57.541Z,50.877213
2023-01-28T08:27:57.542Z,50.877201
2023-01-28T08:28:57.550Z,50.877213
2023-01-28T08:29:57.519Z,50.877205
2023-01-28T08:30:57.603Z,50.877148
2023-01-28T08:31:57.491Z,50.877171
2023-01-28T08:32:57.509Z,50.877209
2023-01-28T08:33:57.487Z,50.877205
2023-01-28T08:34:57.469Z,50.877251
2023-01-28T08:35:57.482Z,50.877216
2023-01-28T08:36:57.480Z,50.877216
2023-01-28T08:37:57.450Z,50.877144
2023-01-28T08:38:57.431Z,50.877205
2023-01-28T08:39:57.428Z,50.877174
2023-01-28T08:40:57.432Z,50.877216
2023-01-28T08:41:57.424Z,50.877197
2023-01-28T08:42:57.387Z,50.877178
2023-01-28T08:43:57.376Z,50.877182
2023-01-28T08:44:57.377Z,50.877178
2023-01-28T08:45:57.399Z,50.877186
2023-01-28T08:46:57.394Z,50.877193
2023-01-28T08:47:57.346Z,50.877182
2023-01-28T08:48:57.363Z,50.877174
2023-01-28T08:49:57.327Z,50.877193
2023-01-28T08:50:57.307Z,50.877182
2023-01-28T08:51:57.300Z,50.877186
2023-01-28T08:52:57.301Z,50.877186
2023-01-28T08:53:57.306Z,50.877186
2023-01-28T08:54:57.270Z,50.877197
2023-01-28T08:55:57.266Z,50.877190
2023-01-28T08:56:57.252Z,50.877197
2023-01-28T08:57:58.654Z,50.877213
2023-01-28T08:58:58.268Z,50.877205
2023-01-28T08:59:57.240Z,50.877216
2023-01-28T09:00:57.220Z,50.877197
2023-01-28T09:01:57.255Z,50.877216
2023-01-28T09:02:57.198Z,50.877216
2023-01-28T09:03:57.278Z,50.877209
2023-01-28T09:04:57.188Z,50.877201
2023-01-28T09:05:57.179Z,50.877190
2023-01-28T09:06:57.169Z,50.877178
2023-01-28T09:07:57.147Z,50.877155
2023-01-28T09:08:57.172Z,50.877178
2023-01-28T09:09:57.138Z,50.877178
2023-01-28T09:10:57.125Z,50.877193
2023-01-28T09:11:57.138Z,50.877186
2023-01-28T09:12:57.106Z,50.877193
2023-01-28T09:13:57.092Z,50.877186
2023-01-28T09:14:57.087Z,50.877190
2023-01-28T09:15:57.126Z,50.877182
2023-01-28T09:16:57.092Z,50.877182
2023-01-28T09:17:57.060Z,50.877201
2023-01-28T09:18:57.056Z,50.877178
2023-01-28T09:19:57.026Z,50.877190
2023-01-28T09:20:57.022Z,50.877178
2023-01-28T09:21:57.016Z,50.877205
2023-01-28T09:22:57.008Z,50.877186
2023-01-28T09:23:57.049Z,50.877193
2023-01-28T09:24:56.985Z,50.877220
2023-01-28T09:25:56.978Z,50.877228
2023-01-28T09:26:56.980Z,50.877251
2023-01-28T09:27:56.958Z,50.877235
2023-01-28T09:28:56.947Z,50.877213
2023-01-28T09:29:56.947Z,50.877171
2023-01-28T09:30:57.042Z,50.877151
2023-01-28T09:31:56.970Z,50.877209
2023-01-28T09:32:56.915Z,50.877228
2023-01-28T09:33:56.914Z,50.877228
2023-01-28T09:34:56.896Z,50.877216
2023-01-28T09:35:56.925Z,50.877197
2023-01-28T09:36:56.878Z,50.877205
2023-01-28T09:37:56.853Z,50.877216
2023-01-28T09:38:56.844Z,50.877197
2023-01-28T09:39:56.835Z,50.877216
2023-01-28T09:40:56.842Z,50.877186
2023-01-28T09:41:56.844Z,50.877178
2023-01-28T09:42:56.818Z,50.877209
2023-01-28T09:43:56.827Z,50.877167
2023-01-28T09:44:56.793Z,50.877186
2023-01-28T09:45:56.789Z,50.877190
2023-01-28T09:46:56.837Z,50.877205
2023-01-28T09:47:56.769Z,50.877193
2023-01-28T09:48:56.788Z,50.877136
2023-01-28T09:49:56.758Z,50.877228
2023-01-28T09:50:56.734Z,50.877136
2023-01-28T09:51:56.746Z,50.877148
2023-01-28T09:52:56.720Z,50.877190
2023-01-28T09:53:56.699Z,50.877193
2023-01-28T09:54:56.720Z,50.877174
2023-01-28T09:55:56.711Z,50.877201
2023-01-28T09:56:56.684Z,50.877174
2023-01-28T09:57:56.674Z,50.877178
2023-01-28T09:58:56.658Z,50.877182
2023-01-28T09:59:56.657Z,50.877148
2023-01-28T10:00:56.652Z,50.877220
2023-01-28T10:01:56.631Z,50.877228
2023-01-28T10:02:56.632Z,50.877216
2023-01-28T10:03:56.647Z,50.877216
2023-01-28T10:04:56.618Z,50.877182
2023-01-28T10:05:56.603Z,50.877197
2023-01-28T10:06:56.597Z,50.877182
2023-01-28T10:07:56.581Z,50.877190
2023-01-28T10:08:56.573Z,50.877190
2023-01-28T10:09:56.565Z,50.877121
2023-01-28T10:10:56.550Z,50.877205
2023-01-28T10:11:56.563Z,50.877171
2023-01-28T10:12:56.548Z,50.877197
2023-01-28T10:13:56.533Z,50.877178
2023-01-28T10:14:56.508Z,50.877144
2023-01-28T10:15:56.531Z,50.877159
2023-01-28T10:16:56.520Z,50.877155
2023-01-28T10:18:10.845Z,50.877163
2023-01-28T10:18:58.501Z,50.877144
2023-01-28T10:19:56.480Z,50.877167
2023-01-28T10:20:56.451Z,50.877140
2023-01-28T10:21:56.469Z,50.877155
2023-01-28T10:22:56.442Z,50.877151
2023-01-28T10:23:56.450Z,50.877140
2023-01-28T10:24:56.423Z,50.877159
2023-01-28T10:25:56.436Z,50.877163
2023-01-28T10:26:56.392Z,50.877174
2023-01-28T10:27:56.389Z,50.877171
2023-01-28T10:28:56.397Z,50.877167
2023-01-28T10:29:56.370Z,50.877182
2023-01-28T10:30:56.404Z,50.877193
2023-01-28T10:31:56.405Z,50.877193
2023-01-28T10:32:56.346Z,50.877220
2023-01-28T10:33:56.330Z,50.877186
2023-01-28T10:34:56.324Z,50.877216
2023-01-28T10:35:56.316Z,50.877186
2023-01-28T10:36:56.334Z,50.877205
2023-01-28T10:37:56.306Z,50.877205
2023-01-28T10:38:56.293Z,50.877213
2023-01-28T10:39:56.265Z,50.877232
2023-01-28T10:40:56.304Z,50.877232
2023-01-28T10:41:58.732Z,50.877220
2023-01-28T10:42:57.255Z,50.877197
2023-01-28T10:43:56.238Z,50.877205
2023-01-28T10:44:56.224Z,50.877171
2023-01-28T10:45:56.273Z,50.877220
2023-01-28T10:46:56.200Z,50.877224
2023-01-28T10:47:56.229Z,50.877216
2023-01-28T10:48:56.198Z,50.877216
2023-01-28T10:49:56.192Z,50.877193
2023-01-28T10:50:56.162Z,50.877193
2023-01-28T10:51:56.164Z,50.877228
2023-01-28T10:52:56.180Z,50.877155
2023-01-28T10:53:56.160Z,50.877228
2023-01-28T10:54:56.152Z,50.877220
2023-01-28T10:55:56.139Z,50.877201
2023-01-28T10:56:56.117Z,50.877224
2023-01-28T10:57:56.110Z,50.877209
2023-01-28T10:58:56.106Z,50.877205
2023-01-28T10:59:56.111Z,50.877209
2023-01-28T11:00:56.133Z,50.877201
2023-01-28T11:01:56.109Z,50.877190
2023-01-28T11:02:56.084Z,50.877220
2023-01-28T11:03:56.111Z,50.877228
2023-01-28T11:04:56.058Z,50.877216
2023-01-28T11:05:56.036Z,50.877213
2023-01-28T11:06:56.014Z,50.877216
2023-01-28T11:07:56.027Z,50.877201
2023-01-28T11:08:56.008Z,50.877216
2023-01-28T11:09:56.009Z,50.877178
2023-01-28T11:10:55.992Z,50.877239
2023-01-28T11:11:55.977Z,50.877209
2023-01-28T11:12:55.964Z,50.877144
2023-01-28T11:13:55.969Z,50.877163
2023-01-28T11:14:55.960Z,50.877163
2023-01-28T11:15:55.956Z,50.877197
2023-01-28T11:16:55.959Z,50.877186
2023-01-28T11:17:55.984Z,50.877193
2023-01-28T11:18:55.918Z,50.877197
2023-01-28T11:19:55.908Z,50.877193
2023-01-28T11:20:55.882Z,50.877220
2023-01-28T11:21:55.910Z,50.877228
2023-01-28T11:22:55.881Z,50.877201
2023-01-28T11:23:58.987Z,50.877258